Map

Track Data

SID SEASON NUMBER BASIN SUBBASIN NAME ISO_TIME NATURE LAT LON WMO_WIND WMO_PRES WMO_AGENCY TRACK_TYPE DIST2LAND LANDFALL IFLAG USA_AGENCY USA_ATCF_ID USA_LAT USA_LON USA_RECORD USA_STATUS USA_WIND USA_PRES USA_SSHS USA_R34_NE USA_R34_SE USA_R34_SW USA_R34_NW USA_R50_NE USA_R50_SE USA_R50_SW USA_R50_NW USA_R64_NE USA_R64_SE USA_R64_SW USA_R64_NW USA_POCI USA_ROCI USA_RMW USA_EYE TOKYO_LAT TOKYO_LON TOKYO_GRADE TOKYO_WIND TOKYO_PRES TOKYO_R50_DIR TOKYO_R50_LONG TOKYO_R50_SHORT TOKYO_R30_DIR TOKYO_R30_LONG TOKYO_R30_SHORT TOKYO_LAND CMA_LAT CMA_LON CMA_CAT CMA_WIND CMA_PRES HKO_LAT HKO_LON HKO_CAT HKO_WIND HKO_PRES NEWDELHI_LAT NEWDELHI_LON NEWDELHI_GRADE NEWDELHI_WIND NEWDELHI_PRES NEWDELHI_CI NEWDELHI_DP NEWDELHI_POCI REUNION_LAT REUNION_LON REUNION_TYPE REUNION_WIND REUNION_PRES REUNION_TNUM REUNION_CI REUNION_RMW REUNION_R34_NE REUNION_R34_SE REUNION_R34_SW REUNION_R34_NW REUNION_R50_NE REUNION_R50_SE REUNION_R50_SW REUNION_R50_NW REUNION_R64_NE REUNION_R64_SE REUNION_R64_SW REUNION_R64_NW BOM_LAT BOM_LON BOM_TYPE BOM_WIND BOM_PRES BOM_TNUM BOM_CI BOM_RMW BOM_R34_NE BOM_R34_SE BOM_R34_SW BOM_R34_NW BOM_R50_NE BOM_R50_SE BOM_R50_SW BOM_R50_NW BOM_R64_NE BOM_R64_SE BOM_R64_SW BOM_R64_NW BOM_ROCI BOM_POCI BOM_EYE BOM_POS_METHOD BOM_PRES_METHOD NADI_LAT NADI_LON NADI_CAT NADI_WIND NADI_PRES WELLINGTON_LAT WELLINGTON_LON WELLINGTON_WIND WELLINGTON_PRES DS824_LAT DS824_LON DS824_STAGE DS824_WIND DS824_PRES TD9636_LAT TD9636_LON TD9636_STAGE TD9636_WIND TD9636_PRES TD9635_LAT TD9635_LON TD9635_WIND TD9635_PRES TD9635_ROCI NEUMANN_LAT NEUMANN_LON NEUMANN_CLASS NEUMANN_WIND NEUMANN_PRES MLC_LAT MLC_LON MLC_CLASS MLC_WIND MLC_PRES USA_GUST BOM_GUST BOM_GUST_PER REUNION_GUST REUNION_GUST_PER USA_SEAHGT USA_SEARAD_NE USA_SEARAD_SE USA_SEARAD_SW USA_SEARAD_NW STORM_SPEED STORM_DIR
1946229N20091 1946 45 NI BB NOT_NAMED 1946-08-16 18:00:00 TS 19.9000 90.6000 main 207 207 O________O____ jtwc_io IO051946 19.9000 90.6000 -1 19.9000 90.6000 TC 5 270
1946229N20091 1946 45 NI BB NOT_NAMED 1946-08-16 21:00:00 TS 19.9001 90.3375 main 212 212 P________P____ IO051946 19.9001 90.3375 -1 19.9001 90.3375 TC 5 270
1946229N20091 1946 45 NI BB NOT_NAMED 1946-08-17 00:00:00 TS 19.9000 90.1000 main 212 207 O________O____ jtwc_io IO051946 19.9000 90.1000 -1 19.9000 90.1000 TC 25 4 270
1946229N20091 1946 45 NI BB NOT_NAMED 1946-08-17 03:00:00 TS 19.8999 89.9000 main 207 200 P________PO___ IO051946 19.8999 89.9000 -1 19.8999 89.9000 TC 25 19.9000 89.9000 1 4 270
1946229N20091 1946 45 NI BB NOT_NAMED 1946-08-17 06:00:00 TS 19.9007 89.6869 main 200 192 O________OP___ jtwc_io IO051946 19.9000 89.7000 -1 19.9000 89.7000 TC 25 19.9036 89.6345 1 4 270
1946229N20091 1946 45 NI BB NOT_NAMED 1946-08-17 09:00:00 TS 19.9015 89.4350 main 192 190 P________PP___ IO051946 19.9000 89.4575 -1 19.9000 89.4575 TC 25 19.9056 89.3751 1 5 270
1946229N20091 1946 45 NI BB NOT_NAMED 1946-08-17 12:00:00 TS 19.9016 89.1761 main 190 190 O________OP___ jtwc_io IO051946 19.9000 89.2000 -1 19.9000 89.2000 TC 25 19.9047 89.1282 1 5 270
1946229N20091 1946 45 NI BB NOT_NAMED 1946-08-17 15:00:00 TS 19.9000 88.9333 main 190 190 P________PO___ IO051946 19.9000 88.9500 -1 19.9000 88.9500 TC 25 19.9000 88.9000 1 5 269
1946229N20091 1946 45 NI BB NOT_NAMED 1946-08-17 18:00:00 TS 19.8972 88.6973 main 191 180 O________OP___ jtwc_io IO051946 19.9000 88.7000 -1 19.9000 88.7000 TC 25 19.8915 88.6921 1 4 269
1946229N20091 1946 45 NI BB NOT_NAMED 1946-08-17 21:00:00 TS 19.8948 88.4624 main 180 153 P________PP___ IO051946 19.9000 88.4500 -1 19.9000 88.4500 TC 25 19.8844 88.4873 1 4 270
1946229N20091 1946 45 NI BB NOT_NAMED 1946-08-18 00:00:00 TS 19.8951 88.2213 main 153 137 O________OP___ jtwc_io IO051946 19.9000 88.2000 -1 19.9000 88.2000 TC 25 19.8852 88.2639 1 5 270
1946229N20091 1946 45 NI BB NOT_NAMED 1946-08-18 03:00:00 TS 19.8949 87.9816 main 137 113 P________PO___ IO051946 19.8924 87.9724 -1 19.8924 87.9724 TC 25 19.9000 88.0000 1 5 270
1946229N20091 1946 45 NI BB NOT_NAMED 1946-08-18 06:00:00 TS 19.8944 87.6837 main 113 76 O________OP___ jtwc_io IO051946 19.9000 87.7000 -1 19.9000 87.7000 TC 25 19.8832 87.6512 1 6 272
1946229N20091 1946 45 NI BB NOT_NAMED 1946-08-18 09:00:00 TS 19.9144 87.2980 main 76 39 P________PP___ IO051946 19.9276 87.3149 -1 19.9276 87.3149 TC 25 19.8880 87.2640 1 8 277
1946229N20091 1946 45 NI BB NOT_NAMED 1946-08-18 12:00:00 TS 19.9829 86.8899 main 39 10 O________OP___ jtwc_io IO051946 20.0000 86.9000 -1 20.0000 86.9000 TC 25 19.9488 86.8698 1 8 284
1946229N20091 1946 45 NI BB NOT_NAMED 1946-08-18 15:00:00 TS 20.0983 86.5232 main 10 0 P________PO___ IO051946 20.0974 86.5348 -1 20.0974 86.5348 TC 25 20.1000 86.5000 1 7 298
1946229N20091 1946 45 NI BB NOT_NAMED 1946-08-18 18:00:00 TS 20.3262 86.1912 main 0 0 O________OP___ jtwc_io IO051946 20.3000 86.2000 -1 20.3000 86.2000 TC 25 20.3654 86.1779 1 8 315
1946229N20091 1946 45 NI BB NOT_NAMED 1946-08-18 21:00:00 TS 20.6850 85.8945 main 0 0 P________PP___ IO051946 20.6551 85.8929 -1 20.6551 85.8929 TC 25 20.7248 85.8967 1 10 326
1946229N20091 1946 45 NI BB NOT_NAMED 1946-08-19 00:00:00 TS 21.1234 85.6210 main 0 0 O________OP___ jtwc_io IO051946 21.1000 85.6000 -1 21.1000 85.6000 TC 25 21.1468 85.6421 1 10 333
1946229N20091 1946 45 NI BB NOT_NAMED 1946-08-19 03:00:00 NR 21.6000 85.4000 main 0 __________O___ IO051946 -1 TC 21.6000 85.4000 1 10 337

About IBTrACS Database

This database is a web-friendly format of International Best Track Archive for Climate Stewardship (IBTrACS), a global best track data archive curated by NOAA dating back to 1842.

Updated: 2021-10-08